Creighton, South Dakota
Current Conditions -  °F | °C
As of 4:27 PM on Monday 22 Dec 2014 (Local Time) from KPHP Reporting Station
Light Snow Light Snow  
Wind Chill: 16°   Ceiling: 6000
Heat Index: 31°   Visibility: 6mi
Dew Point: 25°   Wind: 30mph
Humidity: 79%   Direction: 330°NNW
Pressure: 29.56"   Gusts: 43mph
Location:  44.29°N, 102.14°W
Report Text: KPHP 222327Z AUTO 33026G37KT 6SM -SN FEW022 BKN060 OVC070 M01/M04 A2956 RMK AO2 PK WND 33037/2322 P0000 T10061039
Loading
Personal Weather Stations






























Interactive Weather Map New forecast layout! Learn more

10-Day Weather Forecast

Advertisements
Track Severe Weather on mobile